PWSweather.com
Personal Weather Stations
Station Observations
KVAGLENALL
West Henrico, Glen Allen, VA 23060-6503

West HenricoGlen Allen, VA 23060-6503

Lat: 37.6554, Lon: -77.5693

Elevation: 273

Station Type: Davis Vantage Pro II

www.glenallenweather.com

High Low Average
Temperature 80.1°F26.7°C 57.9°F14.4°C 64.7°F18.2°C
Dew Point 65.0°F18.3°C 52.7°F11.5°C 58.3°F14.6°C
Winds 33.0 mph 53.1 kmh Calm Calm 8.0 mph SSW12.9 kmh SSW
Wind Gusts 46.5 mph74.8 kmh 1.0 mph1.6 kmh 14.0 mph22.5 kmh
Humidity 98% 48% 82%
Pressure 30.04 in1017.3 mb 29.66 in1004.4 mb -
Precipitation 0.00 in0.0 mm - -
Hour Temp Dew Point Humidity Winds Wind Gusts Pressure Precip Precip Rate Daily Precip Total
12:00 AM 59.0°F15.0°C 58.2°F14.6°C 97% Calm Calm 1.0 mph1.6 kmh 30.07 in1018.3 mb 0.00 in0.0 mm 0.00 in0.0 mm 0.00 in0.0 mm
12:15 AM 59.1°F15.1°C 58.3°F14.6°C 97% Calm Calm -- 30.06 in1017.9 mb 0.00 in0.0 mm 0.00 in0.0 mm 0.00 in0.0 mm
12:30 AM 59.1°F15.1°C 58.3°F14.6°C 97% Calm Calm -- 30.06 in1017.9 mb 0.00 in0.0 mm 0.00 in0.0 mm 0.00 in0.0 mm
12:45 AM 59.1°F15.1°C 58.3°F14.6°C 97% 1.0 mph S1.6 kmh S 1.0 mph1.6 kmh 30.05 in1017.6 mb 0.00 in0.0 mm 0.00 in0.0 mm 0.00 in0.0 mm
01:00 AM 59.0°F15.0°C 58.2°F14.6°C 97% 2.0 mph S3.2 kmh S 3.0 mph4.8 kmh 30.04 in1017.3 mb 0.00 in0.0 mm 0.00 in0.0 mm 0.00 in0.0 mm
01:15 AM 58.8°F14.9°C 58.0°F14.4°C 97% Calm Calm 1.0 mph1.6 kmh 30.04 in1017.3 mb 0.00 in0.0 mm 0.00 in0.0 mm 0.00 in0.0 mm
01:30 AM 58.5°F14.7°C 57.7°F14.3°C 97% 3.0 mph S4.8 kmh S 3.0 mph4.8 kmh 30.03 in1016.9 mb 0.00 in0.0 mm 0.00 in0.0 mm 0.00 in0.0 mm
01:45 AM 58.2°F14.6°C 57.4°F14.1°C 97% Calm Calm 1.0 mph1.6 kmh 30.03 in1016.9 mb 0.00 in0.0 mm 0.00 in0.0 mm 0.00 in0.0 mm
02:00 AM 58.0°F14.4°C 57.2°F14.0°C 97% Calm Calm 2.0 mph3.2 kmh 30.02 in1016.6 mb 0.01 in0.3 mm 0.01 in0.3 mm 0.01 in0.3 mm
02:15 AM 57.9°F14.4°C 57.1°F13.9°C 97% 3.0 mph S4.8 kmh S 3.0 mph4.8 kmh 30.01 in1016.3 mb 0.01 in0.3 mm 0.00 in0.0 mm 0.01 in0.3 mm
02:30 AM 57.9°F14.4°C 57.3°F14.1°C 98% 2.0 mph S3.2 kmh S 3.0 mph4.8 kmh 30.01 in1016.3 mb 0.01 in0.3 mm 0.00 in0.0 mm 0.01 in0.3 mm
02:45 AM 57.9°F14.4°C 57.3°F14.1°C 98% Calm Calm 4.0 mph6.4 kmh 30.00 in1015.9 mb 0.01 in0.3 mm 0.00 in0.0 mm 0.01 in0.3 mm
03:00 AM 58.4°F14.7°C 57.8°F14.3°C 98% 2.0 mph S3.2 kmh S 4.0 mph6.4 kmh 29.99 in1015.6 mb 0.00 in0.0 mm 0.00 in0.0 mm 0.01 in0.3 mm
03:15 AM 58.5°F14.7°C 57.9°F14.4°C 98% 1.0 mph S1.6 kmh S 4.0 mph6.4 kmh 29.98 in1015.2 mb 0.00 in0.0 mm 0.00 in0.0 mm 0.01 in0.3 mm
03:30 AM 58.4°F14.7°C 57.8°F14.3°C 98% 2.0 mph SSW3.2 kmh SSW 3.0 mph4.8 kmh 29.98 in1015.2 mb 0.00 in0.0 mm 0.00 in0.0 mm 0.01 in0.3 mm
03:45 AM 58.2°F14.6°C 57.6°F14.2°C 98% 2.0 mph S3.2 kmh S 3.0 mph4.8 kmh 29.96 in1014.6 mb 0.00 in0.0 mm 0.00 in0.0 mm 0.01 in0.3 mm
04:00 AM 57.9°F14.4°C 57.3°F14.1°C 98% 1.0 mph S1.6 kmh S 3.0 mph4.8 kmh 29.96 in1014.6 mb 0.00 in0.0 mm 0.00 in0.0 mm 0.01 in0.3 mm
04:15 AM 58.2°F14.6°C 57.6°F14.2°C 98% 4.0 mph SSW6.4 kmh SSW 5.1 mph8.2 kmh 29.95 in1014.2 mb 0.00 in0.0 mm 0.00 in0.0 mm 0.01 in0.3 mm
04:30 AM 58.8°F14.9°C 58.2°F14.6°C 98% 5.0 mph S8.0 kmh S 7.1 mph11.4 kmh 29.95 in1014.2 mb 0.00 in0.0 mm 0.00 in0.0 mm 0.01 in0.3 mm
04:45 AM 59.4°F15.2°C 58.6°F14.8°C 97% 5.0 mph S8.0 kmh S 6.1 mph9.8 kmh 29.95 in1014.2 mb 0.00 in0.0 mm 0.00 in0.0 mm 0.01 in0.3 mm
05:00 AM 59.9°F15.5°C 58.8°F14.9°C 96% 5.0 mph S8.0 kmh S 7.1 mph11.4 kmh 29.94 in1013.9 mb 0.00 in0.0 mm 0.00 in0.0 mm 0.01 in0.3 mm
05:15 AM 60.2°F15.7°C 58.8°F14.9°C 95% 8.0 mph SSW12.9 kmh SSW 9.1 mph14.6 kmh 29.93 in1013.5 mb 0.00 in0.0 mm 0.00 in0.0 mm 0.01 in0.3 mm
05:30 AM 60.5°F15.8°C 59.1°F15.1°C 95% 1.0 mph S1.6 kmh S 6.1 mph9.8 kmh 29.93 in1013.5 mb 0.00 in0.0 mm 0.00 in0.0 mm 0.01 in0.3 mm
05:45 AM 60.6°F15.9°C 58.9°F14.9°C 94% 4.0 mph S6.4 kmh S 6.1 mph9.8 kmh 29.92 in1013.2 mb 0.00 in0.0 mm 0.00 in0.0 mm 0.01 in0.3 mm
06:00 AM 60.8°F16.0°C 59.1°F15.1°C 94% 3.0 mph SSW4.8 kmh SSW 9.1 mph14.6 kmh 29.92 in1013.2 mb 0.00 in0.0 mm 0.00 in0.0 mm 0.01 in0.3 mm
06:15 AM 60.9°F16.1°C 58.9°F14.9°C 93% 4.0 mph S6.4 kmh S 9.1 mph14.6 kmh 29.92 in1013.2 mb 0.00 in0.0 mm 0.00 in0.0 mm 0.01 in0.3 mm
06:30 AM 60.9°F16.1°C 59.2°F15.1°C 94% 8.0 mph S12.9 kmh S 11.1 mph17.9 kmh 29.91 in1012.9 mb 0.00 in0.0 mm 0.00 in0.0 mm 0.01 in0.3 mm
06:45 AM 61.1°F16.2°C 59.4°F15.2°C 94% 5.0 mph SW8.0 kmh SW 12.1 mph19.5 kmh 29.91 in1012.9 mb 0.00 in0.0 mm 0.00 in0.0 mm 0.01 in0.3 mm
07:00 AM 61.1°F16.2°C 59.4°F15.2°C 94% 5.0 mph S8.0 kmh S 10.1 mph16.3 kmh 29.91 in1012.9 mb 0.00 in0.0 mm 0.00 in0.0 mm 0.01 in0.3 mm
07:15 AM 61.3°F16.3°C 59.6°F15.3°C 94% 6.0 mph SSW9.7 kmh SSW 12.1 mph19.5 kmh 29.90 in1012.5 mb 0.00 in0.0 mm 0.00 in0.0 mm 0.01 in0.3 mm
07:30 AM 61.7°F16.5°C 60.0°F15.6°C 94% 7.0 mph S11.3 kmh S 12.1 mph19.5 kmh 29.90 in1012.5 mb 0.00 in0.0 mm 0.00 in0.0 mm 0.01 in0.3 mm
07:45 AM 62.2°F16.8°C 60.5°F15.8°C 94% 4.0 mph SSW6.4 kmh SSW 16.2 mph26.1 kmh 29.91 in1012.9 mb 0.00 in0.0 mm 0.00 in0.0 mm 0.01 in0.3 mm
08:00 AM 62.5°F16.9°C 60.5°F15.8°C 93% 10.0 mph SSW16.1 kmh SSW 20.2 mph32.5 kmh 29.90 in1012.5 mb 0.00 in0.0 mm 0.00 in0.0 mm 0.01 in0.3 mm
08:15 AM 62.8°F17.1°C 60.8°F16.0°C 93% 5.0 mph WSW8.0 kmh WSW 11.1 mph17.9 kmh 29.89 in1012.2 mb 0.02 in0.5 mm 0.08 in2.0 mm 0.03 in0.8 mm
08:30 AM 63.3°F17.4°C 61.3°F16.3°C 93% 5.0 mph S8.0 kmh S 6.1 mph9.8 kmh 29.88 in1011.9 mb 0.02 in0.5 mm 0.00 in0.0 mm 0.03 in0.8 mm
08:45 AM 63.6°F17.6°C 61.3°F16.3°C 92% 9.0 mph S14.5 kmh S 17.2 mph27.7 kmh 29.88 in1011.9 mb 0.02 in0.5 mm 0.00 in0.0 mm 0.03 in0.8 mm
09:00 AM 63.8°F17.7°C 61.5°F16.4°C 92% 11.0 mph S17.7 kmh S 18.2 mph29.3 kmh 29.87 in1011.5 mb 0.03 in0.8 mm 0.01 in0.3 mm 0.04 in1.0 mm
09:15 AM 64.4°F18.0°C 62.1°F16.7°C 92% 3.0 mph S4.8 kmh S 13.1 mph21.1 kmh 29.87 in1011.5 mb 0.00 in0.0 mm 0.00 in0.0 mm 0.04 in1.0 mm
09:30 AM 64.9°F18.3°C 62.2°F16.8°C 91% 7.0 mph S11.3 kmh S 17.2 mph27.7 kmh 29.85 in1010.8 mb 0.00 in0.0 mm 0.00 in0.0 mm 0.04 in1.0 mm
09:45 AM 65.7°F18.7°C 62.7°F17.1°C 90% 5.0 mph S8.0 kmh S 13.1 mph21.1 kmh 29.85 in1010.8 mb 0.00 in0.0 mm 0.00 in0.0 mm 0.04 in1.0 mm
10:00 AM 67.3°F19.6°C 63.7°F17.6°C 88% 13.0 mph S20.9 kmh S 18.2 mph29.3 kmh 29.83 in1010.2 mb 0.00 in0.0 mm 0.00 in0.0 mm 0.04 in1.0 mm
10:15 AM 68.8°F20.4°C 63.8°F17.7°C 84% 8.0 mph SW12.9 kmh SW 15.1 mph24.3 kmh 29.83 in1010.2 mb 0.00 in0.0 mm 0.00 in0.0 mm 0.04 in1.0 mm
10:30 AM 70.1°F21.2°C 63.6°F17.6°C 80% 11.0 mph SW17.7 kmh SW 28.3 mph45.5 kmh 29.83 in1010.2 mb 0.00 in0.0 mm 0.00 in0.0 mm 0.04 in1.0 mm
10:45 AM 70.8°F21.6°C 65.0°F18.3°C 82% 21.0 mph SSW33.8 kmh SSW 23.2 mph37.3 kmh 29.82 in1009.8 mb 0.00 in0.0 mm 0.00 in0.0 mm 0.04 in1.0 mm
11:00 AM 72.1°F22.3°C 63.7°F17.6°C 75% 6.0 mph SSW9.7 kmh SSW 20.2 mph32.5 kmh 29.83 in1010.2 mb 0.00 in0.0 mm 0.00 in0.0 mm 0.04 in1.0 mm
11:15 AM 72.5°F22.5°C 63.3°F17.4°C 73% 14.0 mph SW22.5 kmh SW 23.2 mph37.3 kmh 29.83 in1010.2 mb 0.00 in0.0 mm 0.00 in0.0 mm 0.04 in1.0 mm
11:30 AM 73.5°F23.1°C 63.1°F17.3°C 70% 16.0 mph SW25.7 kmh SW 26.3 mph42.3 kmh 29.81 in1009.5 mb 0.00 in0.0 mm 0.00 in0.0 mm 0.04 in1.0 mm
11:45 AM 74.9°F23.8°C 63.2°F17.3°C 67% 14.0 mph SW22.5 kmh SW 23.2 mph37.3 kmh 29.79 in1008.8 mb 0.00 in0.0 mm 0.00 in0.0 mm 0.04 in1.0 mm
12:00 PM 74.7°F23.7°C 62.1°F16.7°C 65% 11.0 mph SW17.7 kmh SW 20.2 mph32.5 kmh 29.77 in1008.1 mb 0.00 in0.0 mm 0.00 in0.0 mm 0.04 in1.0 mm
12:15 PM 74.5°F23.6°C 62.0°F16.7°C 65% 15.0 mph SW24.1 kmh SW 24.2 mph38.9 kmh 29.76 in1007.8 mb 0.00 in0.0 mm 0.00 in0.0 mm 0.04 in1.0 mm
12:30 PM 74.9°F23.8°C 61.9°F16.6°C 64% 6.0 mph SSW9.7 kmh SSW 26.3 mph42.3 kmh 29.75 in1007.5 mb 0.00 in0.0 mm 0.00 in0.0 mm 0.04 in1.0 mm
12:45 PM 76.1°F24.5°C 61.7°F16.5°C 61% 33.0 mph SSW53.1 kmh SSW 46.5 mph74.8 kmh 29.75 in1007.5 mb 0.00 in0.0 mm 0.00 in0.0 mm 0.04 in1.0 mm
01:00 PM 77.2°F25.1°C 61.3°F16.3°C 58% 18.0 mph SSW29.0 kmh SSW 29.3 mph47.2 kmh 29.75 in1007.5 mb 0.00 in0.0 mm 0.00 in0.0 mm 0.04 in1.0 mm
01:15 PM 77.3°F25.2°C 60.4°F15.8°C 56% 15.0 mph SSW24.1 kmh SSW 33.3 mph53.6 kmh 29.75 in1007.5 mb 0.00 in0.0 mm 0.00 in0.0 mm 0.04 in1.0 mm
01:30 PM 77.0°F25.0°C 60.6°F15.9°C 57% 26.0 mph SSW41.8 kmh SSW 33.3 mph53.6 kmh 29.75 in1007.5 mb 0.00 in0.0 mm 0.00 in0.0 mm 0.04 in1.0 mm
01:45 PM 78.1°F25.6°C 59.6°F15.3°C 53% 20.0 mph SW32.2 kmh SW 30.3 mph48.8 kmh 29.73 in1006.8 mb 0.00 in0.0 mm 0.00 in0.0 mm 0.04 in1.0 mm
02:00 PM 79.5°F26.4°C 60.4°F15.8°C 52% 12.0 mph SSW19.3 kmh SSW 22.2 mph35.7 kmh 29.73 in1006.8 mb 0.00 in0.0 mm 0.00 in0.0 mm 0.04 in1.0 mm
02:15 PM 80.1°F26.7°C 58.7°F14.8°C 48% 18.0 mph SW29.0 kmh SW 28.3 mph45.5 kmh 29.73 in1006.8 mb 0.00 in0.0 mm 0.00 in0.0 mm 0.04 in1.0 mm
02:30 PM 79.9°F26.6°C 59.6°F15.3°C 50% 16.0 mph SSW25.7 kmh SSW 16.2 mph26.1 kmh 29.71 in1006.1 mb 0.00 in0.0 mm 0.00 in0.0 mm 0.04 in1.0 mm
02:45 PM 79.7°F26.5°C 58.3°F14.6°C 48% 24.0 mph S38.6 kmh S 24.2 mph38.9 kmh 29.71 in1006.1 mb 0.00 in0.0 mm 0.00 in0.0 mm 0.04 in1.0 mm
03:00 PM 79.1°F26.2°C 57.7°F14.3°C 48% 11.0 mph SW17.7 kmh SW 17.2 mph27.7 kmh 29.72 in1006.4 mb 0.00 in0.0 mm 0.00 in0.0 mm 0.04 in1.0 mm
03:15 PM 73.3°F22.9°C 56.6°F13.7°C 56% 16.0 mph W25.7 kmh W 21.2 mph34.1 kmh 29.78 in1008.5 mb 0.01 in0.3 mm 0.04 in1.0 mm 0.05 in1.3 mm
03:30 PM 66.0°F18.9°C 56.4°F13.6°C 71% Calm Calm 10.1 mph16.3 kmh 29.79 in1008.8 mb 0.02 in0.5 mm 0.04 in1.0 mm 0.06 in1.5 mm
03:45 PM 66.7°F19.3°C 57.0°F13.9°C 71% 1.0 mph N1.6 kmh N 5.1 mph8.2 kmh 29.78 in1008.5 mb 0.02 in0.5 mm 0.00 in0.0 mm 0.06 in1.5 mm
04:00 PM 68.8°F20.4°C 57.5°F14.2°C 67% 5.0 mph SW8.0 kmh SW 7.1 mph11.4 kmh 29.79 in1008.8 mb 0.02 in0.5 mm 0.00 in0.0 mm 0.06 in1.5 mm
04:15 PM 70.4°F21.3°C 56.3°F13.5°C 61% 2.0 mph NW3.2 kmh NW 11.1 mph17.9 kmh 29.79 in1008.8 mb 0.01 in0.3 mm 0.00 in0.0 mm 0.06 in1.5 mm
04:30 PM 71.1°F21.7°C 55.6°F13.1°C 58% 7.0 mph SW11.3 kmh SW 10.1 mph16.3 kmh 29.79 in1008.8 mb 0.00 in0.0 mm 0.00 in0.0 mm 0.06 in1.5 mm
04:45 PM 69.6°F20.9°C 54.6°F12.6°C 59% Calm Calm 5.1 mph8.2 kmh 29.79 in1008.8 mb 0.00 in0.0 mm 0.00 in0.0 mm 0.06 in1.5 mm
05:00 PM 69.0°F20.6°C 53.7°F12.1°C 58% 4.0 mph SW6.4 kmh SW 7.1 mph11.4 kmh 29.79 in1008.8 mb 0.00 in0.0 mm 0.00 in0.0 mm 0.06 in1.5 mm
05:15 PM 68.5°F20.3°C 52.7°F11.5°C 57% 2.0 mph SW3.2 kmh SW 6.1 mph9.8 kmh 29.79 in1008.8 mb 0.00 in0.0 mm 0.00 in0.0 mm 0.06 in1.5 mm
05:30 PM 67.7°F19.8°C 52.9°F11.6°C 59% 6.0 mph SW9.7 kmh SW 6.1 mph9.8 kmh 29.80 in1009.1 mb 0.00 in0.0 mm 0.00 in0.0 mm 0.06 in1.5 mm
05:45 PM 65.7°F18.7°C 54.9°F12.7°C 68% 3.0 mph WSW4.8 kmh WSW 11.1 mph17.9 kmh 29.79 in1008.8 mb 0.01 in0.3 mm 0.04 in1.0 mm 0.07 in1.8 mm
06:00 PM 64.6°F18.1°C 54.2°F12.3°C 69% 5.0 mph SSW8.0 kmh SSW 6.1 mph9.8 kmh 29.79 in1008.8 mb 0.01 in0.3 mm 0.00 in0.0 mm 0.07 in1.8 mm
06:15 PM 64.1°F17.8°C 54.2°F12.3°C 70% 5.0 mph S8.0 kmh S 8.1 mph13.0 kmh 29.80 in1009.1 mb 0.01 in0.3 mm 0.00 in0.0 mm 0.07 in1.8 mm
06:30 PM 63.5°F17.5°C 54.3°F12.4°C 72% 8.0 mph SSW12.9 kmh SSW 10.1 mph16.3 kmh 29.81 in1009.5 mb 0.01 in0.3 mm 0.00 in0.0 mm 0.07 in1.8 mm
06:45 PM 62.2°F16.8°C 54.9°F12.7°C 77% 8.0 mph SW12.9 kmh SW 12.1 mph19.5 kmh 29.80 in1009.1 mb 0.01 in0.3 mm 0.00 in0.0 mm 0.07 in1.8 mm
07:00 PM 61.4°F16.3°C 54.8°F12.7°C 79% 5.0 mph SSW8.0 kmh SSW 10.1 mph16.3 kmh 29.78 in1008.5 mb 0.02 in0.5 mm 0.01 in0.3 mm 0.08 in2.0 mm
07:15 PM 60.8°F16.0°C 55.3°F12.9°C 82% 11.0 mph SSW17.7 kmh SSW 15.1 mph24.3 kmh 29.78 in1008.5 mb 0.02 in0.5 mm 0.00 in0.0 mm 0.08 in2.0 mm
07:30 PM 60.5°F15.8°C 55.7°F13.2°C 84% 6.0 mph S9.7 kmh S 13.1 mph21.1 kmh 29.78 in1008.5 mb 0.04 in1.0 mm 0.08 in2.0 mm 0.10 in2.5 mm
07:45 PM 60.0°F15.6°C 55.8°F13.2°C 86% 10.0 mph SSW16.1 kmh SSW 13.1 mph21.1 kmh 29.77 in1008.1 mb 0.06 in1.5 mm 0.08 in2.0 mm 0.12 in3.0 mm
08:00 PM 59.7°F15.4°C 56.1°F13.4°C 88% 11.0 mph S17.7 kmh S 13.1 mph21.1 kmh 29.76 in1007.8 mb 0.08 in2.0 mm 0.03 in0.8 mm 0.14 in3.6 mm
08:15 PM 59.4°F15.2°C 56.5°F13.6°C 90% 5.0 mph SSW8.0 kmh SSW 12.1 mph19.5 kmh 29.71 in1006.1 mb 0.09 in2.3 mm 0.04 in1.0 mm 0.15 in3.8 mm
08:30 PM 59.3°F15.2°C 56.7°F13.7°C 91% 13.0 mph S20.9 kmh S 18.2 mph29.3 kmh 29.73 in1006.8 mb 0.07 in1.8 mm 0.00 in0.0 mm 0.15 in3.8 mm
08:45 PM 59.3°F15.2°C 56.7°F13.7°C 91% 9.0 mph S14.5 kmh S 16.2 mph26.1 kmh 29.72 in1006.4 mb 0.05 in1.3 mm 0.00 in0.0 mm 0.15 in3.8 mm
09:00 PM 59.7°F15.4°C 56.8°F13.8°C 90% 11.0 mph SSW17.7 kmh SSW 17.2 mph27.7 kmh 29.72 in1006.4 mb 0.02 in0.5 mm 0.00 in0.0 mm 0.15 in3.8 mm
09:15 PM 59.9°F15.5°C 57.0°F13.9°C 90% 10.0 mph SSW16.1 kmh SSW 19.2 mph30.9 kmh 29.71 in1006.1 mb 0.01 in0.3 mm 0.00 in0.0 mm 0.15 in3.8 mm
09:30 PM 59.9°F15.5°C 57.0°F13.9°C 90% 4.0 mph S6.4 kmh S 15.1 mph24.3 kmh 29.69 in1005.4 mb 0.01 in0.3 mm 0.00 in0.0 mm 0.15 in3.8 mm
09:45 PM 60.0°F15.6°C 56.8°F13.8°C 89% 12.0 mph SW19.3 kmh SW 18.2 mph29.3 kmh 29.68 in1005.1 mb 0.00 in0.0 mm 0.00 in0.0 mm 0.15 in3.8 mm
10:00 PM 60.0°F15.6°C 56.8°F13.8°C 89% 3.0 mph SSW4.8 kmh SSW 17.2 mph27.7 kmh 29.67 in1004.7 mb 0.00 in0.0 mm 0.00 in0.0 mm 0.15 in3.8 mm
10:15 PM 60.3°F15.7°C 56.7°F13.7°C 88% 9.0 mph S14.5 kmh S 20.2 mph32.5 kmh 29.66 in1004.4 mb 0.00 in0.0 mm 0.00 in0.0 mm 0.15 in3.8 mm
10:30 PM 60.9°F16.1°C 56.7°F13.7°C 86% 6.0 mph S9.7 kmh S 19.2 mph30.9 kmh 29.67 in1004.7 mb 0.00 in0.0 mm 0.00 in0.0 mm 0.15 in3.8 mm
10:45 PM 61.1°F16.2°C 56.6°F13.7°C 85% 12.0 mph SSW19.3 kmh SSW 12.1 mph19.5 kmh 29.68 in1005.1 mb 0.00 in0.0 mm 0.00 in0.0 mm 0.15 in3.8 mm
11:00 PM 61.1°F16.2°C 56.9°F13.8°C 86% 15.0 mph SSW24.1 kmh SSW 18.2 mph29.3 kmh 29.68 in1005.1 mb 0.00 in0.0 mm 0.00 in0.0 mm 0.15 in3.8 mm
11:15 PM 61.1°F16.2°C 56.9°F13.8°C 86% 11.0 mph S17.7 kmh S 14.1 mph22.7 kmh 29.67 in1004.7 mb 0.00 in0.0 mm 0.00 in0.0 mm 0.15 in3.8 mm
11:30 PM 60.9°F16.1°C 56.7°F13.7°C 86% 8.0 mph SSW12.9 kmh SSW 13.1 mph21.1 kmh 29.67 in1004.7 mb 0.00 in0.0 mm 0.00 in0.0 mm 0.15 in3.8 mm
11:45 PM 60.9°F16.1°C 56.7°F13.7°C 86% 11.0 mph SW17.7 kmh SW 13.1 mph21.1 kmh 29.67 in1004.7 mb 0.00 in0.0 mm 0.00 in0.0 mm 0.15 in3.8 mm